createdAt,value
2019-05-19T00:02:21.719Z,66.78
2019-05-19T00:04:50.250Z,66.44
2019-05-19T00:07:18.729Z,65.98
2019-05-19T00:09:47.322Z,65.71
2019-05-19T00:12:15.834Z,65.82
2019-05-19T00:14:44.351Z,66.75
2019-05-19T00:17:12.917Z,65.78
2019-05-19T00:19:41.422Z,66.20
2019-05-19T00:22:09.999Z,67.32
2019-05-19T00:24:38.761Z,68.70
2019-05-19T00:27:07.235Z,66.84
2019-05-19T00:29:35.752Z,66.74
2019-05-19T00:32:04.214Z,67.48
2019-05-19T00:34:32.725Z,67.26
2019-05-19T00:37:01.223Z,67.61
2019-05-19T00:39:29.764Z,68.66
2019-05-19T00:41:58.266Z,69.00
2019-05-19T00:44:26.878Z,68.09
2019-05-19T00:46:55.335Z,68.06
2019-05-19T00:49:23.817Z,67.96
2019-05-19T00:51:52.316Z,68.64
2019-05-19T00:54:20.839Z,68.17
2019-05-19T00:56:50.305Z,68.75
2019-05-19T00:59:19.919Z,69.51
2019-05-19T01:01:48.453Z,68.52
2019-05-19T01:04:16.918Z,69.58
2019-05-19T01:06:45.414Z,69.37
2019-05-19T01:09:13.896Z,68.73
2019-05-19T01:11:42.420Z,68.48
2019-05-19T01:14:10.951Z,68.67
2019-05-19T01:16:39.593Z,69.02
2019-05-19T01:19:08.219Z,70.00
2019-05-19T01:21:39.294Z,69.82
2019-05-19T01:24:07.910Z,71.72
2019-05-19T01:26:36.535Z,69.68
2019-05-19T01:29:05.843Z,69.48
2019-05-19T01:31:34.465Z,69.25
2019-05-19T01:34:02.965Z,69.12
2019-05-19T01:36:31.476Z,68.75
2019-05-19T01:39:00.682Z,68.54
2019-05-19T01:41:29.319Z,68.95
2019-05-19T01:43:58.021Z,68.82
2019-05-19T01:46:29.056Z,68.10
2019-05-19T01:48:57.644Z,68.59
2019-05-19T01:51:26.207Z,69.28
2019-05-19T01:53:54.801Z,68.94
2019-05-19T01:56:23.486Z,67.98
2019-05-19T01:58:52.288Z,68.43
2019-05-19T02:01:20.851Z,68.23
2019-05-19T02:03:49.492Z,67.99
2019-05-19T02:06:18.037Z,67.84
2019-05-19T02:08:46.812Z,68.30
2019-05-19T02:11:15.376Z,68.86
2019-05-19T02:13:43.897Z,68.29
2019-05-19T02:16:15.669Z,68.90
2019-05-19T02:18:44.238Z,67.96
2019-05-19T02:21:12.819Z,68.04
2019-05-19T02:23:41.336Z,68.19
2019-05-19T02:26:09.909Z,68.89
2019-05-19T02:28:38.532Z,68.80
2019-05-19T02:31:07.200Z,69.17
2019-05-19T02:33:36.107Z,69.03
2019-05-19T02:36:04.712Z,69.08
2019-05-19T02:38:33.317Z,68.53
2019-05-19T02:41:03.595Z,68.89
2019-05-19T02:43:32.460Z,69.58
2019-05-19T02:46:02.017Z,69.00
2019-05-19T02:48:32.060Z,68.72
2019-05-19T02:51:04.153Z,69.25
2019-05-19T02:53:33.920Z,68.83
2019-05-19T02:56:04.731Z,68.50
2019-05-19T02:58:34.421Z,69.36
2019-05-19T03:01:02.993Z,68.75
2019-05-19T03:03:33.639Z,68.50
2019-05-19T03:06:01.904Z,68.35
2019-05-19T03:08:30.498Z,68.77
2019-05-19T03:10:59.085Z,70.00
2019-05-19T03:13:27.725Z,70.19
2019-05-19T03:15:56.307Z,70.46
2019-05-19T03:18:24.950Z,71.04
2019-05-19T03:21:09.764Z,70.11
2019-05-19T03:23:23.676Z,70.62
2019-05-19T03:25:52.258Z,70.37
2019-05-19T03:28:20.884Z,70.05
2019-05-19T03:30:51.164Z,70.15
2019-05-19T03:33:21.399Z,69.88
2019-05-19T03:35:50.134Z,70.85
2019-05-19T03:38:18.914Z,70.84
2019-05-19T03:40:47.521Z,72.07
2019-05-19T03:43:17.664Z,70.16
2019-05-19T03:45:46.190Z,70.51
2019-05-19T03:48:18.027Z,70.76
2019-05-19T03:50:46.572Z,69.76
2019-05-19T03:53:15.164Z,71.43
2019-05-19T03:55:43.795Z,70.95
2019-05-19T03:58:12.398Z,70.48
2019-05-19T04:00:40.908Z,70.69
2019-05-19T04:03:09.542Z,71.87
2019-05-19T04:05:38.023Z,71.83
2019-05-19T04:08:06.660Z,70.95
2019-05-19T04:10:36.941Z,71.31
2019-05-19T04:13:05.728Z,70.55
2019-05-19T04:15:34.342Z,71.04
2019-05-19T04:18:03.000Z,71.56
2019-05-19T04:20:31.531Z,71.40
2019-05-19T04:23:00.199Z,71.26
2019-05-19T04:25:28.833Z,71.52
2019-05-19T04:27:57.776Z,71.50
2019-05-19T04:30:26.519Z,70.37
2019-05-19T04:32:55.091Z,70.79
2019-05-19T04:35:23.701Z,71.16
2019-05-19T04:37:52.314Z,70.54
2019-05-19T04:40:22.269Z,70.81
2019-05-19T04:42:50.910Z,70.66
2019-05-19T04:45:19.569Z,70.37
2019-05-19T04:47:48.183Z,69.93
2019-05-19T04:50:16.930Z,69.78
2019-05-19T04:52:45.571Z,70.09
2019-05-19T04:55:14.357Z,69.94
2019-05-19T04:57:45.674Z,69.90
2019-05-19T05:00:14.672Z,69.80
2019-05-19T05:02:43.288Z,69.61
2019-05-19T05:05:13.574Z,69.14
2019-05-19T05:07:42.120Z,69.00
2019-05-19T05:10:11.633Z,68.93
2019-05-19T05:12:40.328Z,68.54
2019-05-19T05:15:12.788Z,68.69
2019-05-19T05:17:41.348Z,68.13
2019-05-19T05:20:12.840Z,68.29
2019-05-19T05:22:41.401Z,67.92
2019-05-19T05:25:10.814Z,67.66
2019-05-19T05:27:39.475Z,67.65
2019-05-19T05:30:08.617Z,67.40
2019-05-19T05:32:37.311Z,67.59
2019-05-19T05:35:06.402Z,67.46
2019-05-19T05:37:34.955Z,67.39
2019-05-19T05:40:05.204Z,66.66
2019-05-19T05:42:33.835Z,67.25
2019-05-19T05:45:02.535Z,66.98
2019-05-19T05:47:31.153Z,66.77
2019-05-19T05:49:59.778Z,66.76
2019-05-19T05:52:37.989Z,66.27
2019-05-19T05:54:58.675Z,65.95
2019-05-19T05:57:27.229Z,66.04
2019-05-19T05:59:56.342Z,65.83
2019-05-19T06:02:27.188Z,65.61
2019-05-19T06:04:55.800Z,65.15
2019-05-19T06:07:24.415Z,64.55
2019-05-19T06:09:52.957Z,64.45
2019-05-19T06:12:21.923Z,64.79
2019-05-19T06:14:50.610Z,63.82
2019-05-19T06:17:19.294Z,64.60
2019-05-19T06:19:49.185Z,62.84
2019-05-19T06:22:18.654Z,63.52
2019-05-19T06:24:47.193Z,62.86
2019-05-19T06:27:17.331Z,62.53
2019-05-19T06:29:45.975Z,61.25
2019-05-19T06:32:32.646Z,60.30
2019-05-19T06:35:01.358Z,61.87
2019-05-19T06:37:29.882Z,63.08
2019-05-19T06:39:58.582Z,63.53
2019-05-19T06:42:27.228Z,62.28
2019-05-19T06:44:55.869Z,61.49
2019-05-19T06:47:24.449Z,60.22
2019-05-19T06:49:55.246Z,59.06
2019-05-19T06:52:28.536Z,60.45
2019-05-19T06:54:58.213Z,58.17
2019-05-19T06:57:26.794Z,55.04
2019-05-19T06:59:55.519Z,57.02
2019-05-19T07:02:25.607Z,56.85
2019-05-19T07:04:54.269Z,55.31
2019-05-19T07:07:22.880Z,54.73
2019-05-19T07:09:58.290Z,51.36
2019-05-19T07:12:21.779Z,54.07
2019-05-19T07:14:51.719Z,50.54
2019-05-19T07:17:20.277Z,48.34
2019-05-19T07:19:48.819Z,46.96
2019-05-19T07:22:19.026Z,50.39
2019-05-19T07:24:47.733Z,47.04
2019-05-19T07:27:16.398Z,46.07
2019-05-19T07:29:46.416Z,46.50
2019-05-19T07:32:15.140Z,45.61
2019-05-19T07:34:43.716Z,46.31
2019-05-19T07:37:12.319Z,43.51
2019-05-19T07:39:41.025Z,44.28
2019-05-19T07:42:09.646Z,44.36
2019-05-19T07:44:38.218Z,42.38
2019-05-19T07:47:07.095Z,42.91
2019-05-19T07:49:35.770Z,43.28
2019-05-19T07:52:04.465Z,43.32
2019-05-19T07:54:35.771Z,42.25
2019-05-19T07:57:04.353Z,39.65
2019-05-19T07:59:32.950Z,41.59
2019-05-19T08:02:01.653Z,39.64
2019-05-19T08:04:30.254Z,40.61
2019-05-19T08:06:58.852Z,40.30
2019-05-19T08:09:27.418Z,38.96
2019-05-19T08:12:01.885Z,36.68
2019-05-19T08:14:30.539Z,36.65
2019-05-19T08:16:59.182Z,35.87
2019-05-19T08:19:27.743Z,35.73
2019-05-19T08:21:56.579Z,36.13
2019-05-19T08:24:25.343Z,34.85
2019-05-19T08:26:53.967Z,36.42
2019-05-19T08:29:22.482Z,36.52
2019-05-19T08:31:51.092Z,36.63
2019-05-19T08:34:19.822Z,36.55
2019-05-19T08:36:48.432Z,35.34
2019-05-19T08:39:17.019Z,34.79
2019-05-19T08:41:45.584Z,35.80
2019-05-19T08:44:16.115Z,34.03
2019-05-19T08:46:45.638Z,34.81
2019-05-19T08:49:14.176Z,34.70
2019-05-19T08:51:42.803Z,35.59
2019-05-19T08:54:15.020Z,35.69
2019-05-19T08:56:41.663Z,35.74
2019-05-19T08:59:10.338Z,34.42
2019-05-19T09:01:38.883Z,35.28
2019-05-19T09:04:08.647Z,35.13
2019-05-19T09:06:37.263Z,33.26
2019-05-19T09:09:07.568Z,33.06
2019-05-19T09:11:36.265Z,33.64
2019-05-19T09:14:04.975Z,33.89
2019-05-19T09:16:33.687Z,33.75
2019-05-19T09:19:02.329Z,34.59
2019-05-19T09:21:30.894Z,33.26
2019-05-19T09:24:00.971Z,33.49
2019-05-19T09:26:29.491Z,33.44
2019-05-19T09:28:58.092Z,34.19
2019-05-19T09:38:18.137Z,33.24
2019-05-19T09:49:50.624Z,33.14
2019-05-19T09:52:19.342Z,32.80
2019-05-19T09:54:47.835Z,31.95
2019-05-19T09:57:16.478Z,32.23
2019-05-19T09:59:45.072Z,32.42
2019-05-19T10:02:15.188Z,32.26
2019-05-19T10:04:43.709Z,30.62
2019-05-19T10:07:12.689Z,31.37
2019-05-19T10:10:04.902Z,31.42
2019-05-19T10:12:33.547Z,31.38
2019-05-19T10:15:02.827Z,30.11
2019-05-19T10:17:31.626Z,29.36
2019-05-19T10:20:00.156Z,30.62
2019-05-19T10:22:28.715Z,29.58
2019-05-19T10:25:18.285Z,29.79
2019-05-19T10:27:27.430Z,29.99
2019-05-19T10:29:56.069Z,29.94
2019-05-19T10:32:24.582Z,30.47
2019-05-19T10:34:53.119Z,30.16
2019-05-19T10:37:21.815Z,30.81
2019-05-19T10:39:51.308Z,30.88
2019-05-19T10:42:22.637Z,32.00
2019-05-19T10:44:51.269Z,31.65
2019-05-19T10:47:19.797Z,33.40
2019-05-19T10:49:48.350Z,33.91
2019-05-19T10:52:16.786Z,33.29
2019-05-19T10:54:45.354Z,34.28
2019-05-19T10:57:14.020Z,34.64
2019-05-19T10:59:42.633Z,34.65
2019-05-19T11:02:11.226Z,35.01
2019-05-19T11:04:39.840Z,35.88
2019-05-19T11:07:08.394Z,35.38
2019-05-19T11:09:36.959Z,35.76
2019-05-19T11:12:05.510Z,35.74
2019-05-19T11:14:34.095Z,36.38
2019-05-19T11:17:02.645Z,37.13
2019-05-19T11:19:31.303Z,36.73
2019-05-19T11:21:59.830Z,36.84
2019-05-19T11:24:28.397Z,37.20
2019-05-19T11:26:57.050Z,37.58
2019-05-19T11:29:25.595Z,38.06
2019-05-19T11:31:54.182Z,37.89
2019-05-19T11:34:22.731Z,38.51
2019-05-19T11:36:51.265Z,39.40
2019-05-19T11:39:19.742Z,38.43
2019-05-19T11:41:48.279Z,38.63
2019-05-19T11:44:16.819Z,39.75
2019-05-19T11:46:45.361Z,39.13
2019-05-19T11:49:13.857Z,39.16
2019-05-19T11:51:43.985Z,38.95
2019-05-19T11:54:12.503Z,39.29
2019-05-19T11:56:41.011Z,38.47
2019-05-19T11:59:09.501Z,38.88
2019-05-19T12:01:37.988Z,38.84
2019-05-19T12:04:06.626Z,39.13
2019-05-19T12:06:39.394Z,39.02
2019-05-19T12:09:07.142Z,39.46
2019-05-19T12:11:35.725Z,39.31
2019-05-19T12:14:05.132Z,39.05
2019-05-19T12:16:33.638Z,38.86
2019-05-19T12:19:02.198Z,39.37
2019-05-19T12:21:30.672Z,39.82
2019-05-19T12:23:59.311Z,40.01
2019-05-19T12:26:27.792Z,40.20
2019-05-19T12:28:56.321Z,39.97
2019-05-19T12:31:24.901Z,39.62
2019-05-19T12:33:53.481Z,40.71
2019-05-19T12:36:22.150Z,40.79
2019-05-19T12:38:50.767Z,40.96
2019-05-19T12:41:19.306Z,41.05
2019-05-19T12:43:47.782Z,40.60
2019-05-19T12:46:16.960Z,41.08
2019-05-19T12:48:45.620Z,40.40
2019-05-19T12:51:14.212Z,40.76
2019-05-19T12:53:45.723Z,40.79
2019-05-19T12:56:14.260Z,40.79
2019-05-19T12:58:42.745Z,41.36
2019-05-19T13:01:14.409Z,41.29
2019-05-19T13:03:42.880Z,41.38
2019-05-19T13:06:11.415Z,41.59
2019-05-19T13:08:40.836Z,41.38
2019-05-19T13:11:09.408Z,41.59
2019-05-19T13:13:37.975Z,41.80
2019-05-19T13:16:06.602Z,41.71
2019-05-19T13:18:35.116Z,41.47
2019-05-19T13:21:03.757Z,41.81
2019-05-19T13:23:32.202Z,42.35
2019-05-19T13:26:00.801Z,42.25
2019-05-19T13:28:29.316Z,41.29
2019-05-19T13:30:57.860Z,40.85
2019-05-19T13:33:26.368Z,41.08
2019-05-19T13:35:54.922Z,41.42
2019-05-19T13:38:23.414Z,41.15
2019-05-19T13:40:52.064Z,41.68
2019-05-19T13:43:20.542Z,41.09
2019-05-19T13:45:49.130Z,40.97
2019-05-19T13:48:17.681Z,40.73
2019-05-19T13:50:46.208Z,40.90
2019-05-19T13:53:14.784Z,40.60
2019-05-19T13:55:43.432Z,40.57
2019-05-19T13:58:11.934Z,40.25
2019-05-19T14:00:40.660Z,40.90
2019-05-19T14:03:09.318Z,41.35
2019-05-19T14:05:37.968Z,43.92
2019-05-19T14:08:06.551Z,42.98
2019-05-19T14:10:35.131Z,44.28
2019-05-19T14:13:03.656Z,44.34
2019-05-19T14:15:32.274Z,44.65
2019-05-19T14:18:01.898Z,45.30
2019-05-19T14:20:30.475Z,46.83
2019-05-19T14:22:59.058Z,46.75
2019-05-19T14:25:27.566Z,47.83
2019-05-19T14:27:56.181Z,49.48
2019-05-19T14:30:24.764Z,48.96
2019-05-19T14:32:53.289Z,50.32
2019-05-19T14:35:21.746Z,52.38
2019-05-19T14:37:50.374Z,51.32
2019-05-19T14:40:19.383Z,51.66
2019-05-19T14:42:49.568Z,51.69
2019-05-19T14:45:19.173Z,51.35
2019-05-19T14:47:48.031Z,50.62
2019-05-19T14:50:17.344Z,50.50
2019-05-19T14:52:45.925Z,50.37
2019-05-19T14:55:14.838Z,50.69
2019-05-19T14:57:45.381Z,50.60
2019-05-19T15:00:14.465Z,50.46
2019-05-19T15:02:42.987Z,50.13
2019-05-19T15:05:12.203Z,50.07
2019-05-19T15:07:40.726Z,50.24
2019-05-19T15:10:09.768Z,49.65
2019-05-19T15:12:38.308Z,49.88
2019-05-19T15:15:08.050Z,50.22
2019-05-19T15:17:36.674Z,49.90
2019-05-19T15:20:09.286Z,49.31
2019-05-19T15:22:37.871Z,49.73
2019-05-19T15:25:07.291Z,49.25
2019-05-19T15:27:35.855Z,49.48
2019-05-19T15:30:12.846Z,49.82
2019-05-19T15:32:36.550Z,49.83
2019-05-19T15:35:06.884Z,49.82
2019-05-19T15:37:35.465Z,49.55
2019-05-19T15:40:06.783Z,50.62
2019-05-19T15:42:35.470Z,50.28
2019-05-19T15:45:04.409Z,50.35
2019-05-19T15:47:32.976Z,49.79
2019-05-19T15:50:01.714Z,50.23
2019-05-19T15:52:30.312Z,52.37
2019-05-19T15:54:58.854Z,52.08
2019-05-19T15:57:28.741Z,51.72
2019-05-19T16:00:00.198Z,53.58
2019-05-19T16:02:28.706Z,54.36
2019-05-19T16:04:57.282Z,56.02
2019-05-19T16:07:25.881Z,56.26
2019-05-19T16:09:54.490Z,58.83
2019-05-19T16:12:23.004Z,59.29
2019-05-19T16:14:51.523Z,61.91
2019-05-19T16:17:20.070Z,60.38
2019-05-19T16:19:48.566Z,61.33
2019-05-19T16:22:17.216Z,60.88
2019-05-19T16:24:45.789Z,64.70
2019-05-19T16:27:14.366Z,62.83
2019-05-19T16:29:42.907Z,60.58
2019-05-19T16:32:11.408Z,61.10
2019-05-19T16:34:39.972Z,59.90
2019-05-19T16:37:08.488Z,60.80
2019-05-19T16:39:37.012Z,60.16
2019-05-19T16:42:05.645Z,62.95
2019-05-19T16:44:34.187Z,58.37
2019-05-19T16:47:02.706Z,58.33
2019-05-19T16:49:31.206Z,57.60
2019-05-19T16:51:59.758Z,57.41
2019-05-19T16:54:30.046Z,57.54
2019-05-19T16:56:58.600Z,57.15
2019-05-19T16:59:28.798Z,56.98
2019-05-19T17:01:57.528Z,57.14
2019-05-19T17:04:26.025Z,56.85
2019-05-19T17:06:54.527Z,56.47
2019-05-19T17:09:23.414Z,57.77
2019-05-19T17:11:52.084Z,57.33
2019-05-19T17:14:20.795Z,57.28
2019-05-19T17:16:49.373Z,56.91
2019-05-19T17:19:17.885Z,57.68
2019-05-19T17:21:46.484Z,56.88
2019-05-19T17:24:15.214Z,58.96
2019-05-19T17:26:43.728Z,57.70
2019-05-19T17:29:15.054Z,57.66
2019-05-19T17:31:46.274Z,57.86
2019-05-19T17:34:14.903Z,58.63
2019-05-19T17:36:43.480Z,57.58
2019-05-19T17:39:12.064Z,58.09
2019-05-19T17:41:40.609Z,58.72
2019-05-19T17:44:09.133Z,59.82
2019-05-19T17:46:37.685Z,59.83
2019-05-19T17:49:06.216Z,59.99
2019-05-19T17:51:34.751Z,61.10
2019-05-19T17:54:03.445Z,60.95
2019-05-19T17:56:32.809Z,60.23
2019-05-19T17:59:14.539Z,60.49
2019-05-19T18:01:31.922Z,60.05
2019-05-19T18:04:00.491Z,60.60
2019-05-19T18:06:29.860Z,61.31
2019-05-19T18:08:58.491Z,61.14
2019-05-19T18:11:27.030Z,61.18
2019-05-19T18:13:55.623Z,61.74
2019-05-19T18:16:24.140Z,62.02
2019-05-19T18:18:52.689Z,62.54
2019-05-19T18:21:21.206Z,62.18
2019-05-19T18:23:49.792Z,64.20
2019-05-19T18:26:18.424Z,62.67
2019-05-19T18:28:47.064Z,62.38
2019-05-19T18:31:15.601Z,63.62
2019-05-19T18:33:44.131Z,64.58
2019-05-19T18:36:12.760Z,65.05
2019-05-19T18:38:41.380Z,63.01
2019-05-19T18:41:09.863Z,63.57
2019-05-19T18:43:38.439Z,63.21
2019-05-19T18:46:07.117Z,65.19
2019-05-19T18:48:35.654Z,64.46
2019-05-19T18:51:04.256Z,63.44
2019-05-19T18:53:32.934Z,63.53
2019-05-19T18:56:01.512Z,63.77
2019-05-19T18:58:30.047Z,65.17
2019-05-19T19:01:01.267Z,63.31
2019-05-19T19:03:30.185Z,63.53
2019-05-19T19:05:58.722Z,63.09
2019-05-19T19:08:27.292Z,62.78
2019-05-19T19:10:55.806Z,62.79
2019-05-19T19:13:24.299Z,62.49
2019-05-19T19:15:52.827Z,62.20
2019-05-19T19:18:21.334Z,62.61
2019-05-19T19:20:49.868Z,63.37
2019-05-19T19:23:18.582Z,62.22
2019-05-19T19:25:47.417Z,61.81
2019-05-19T19:28:15.952Z,61.65
2019-05-19T19:30:45.949Z,61.69
2019-05-19T19:33:14.488Z,61.74
2019-05-19T19:35:43.446Z,62.07
2019-05-19T19:38:12.006Z,61.99
2019-05-19T19:40:40.622Z,61.86
2019-05-19T19:43:12.577Z,61.72
2019-05-19T19:45:42.624Z,61.53
2019-05-19T19:48:11.211Z,61.15
2019-05-19T19:50:39.838Z,61.13
2019-05-19T19:53:08.384Z,61.30
2019-05-19T19:55:36.989Z,61.57
2019-05-19T19:58:05.436Z,61.60
2019-05-19T20:00:38.945Z,61.98
2019-05-19T20:03:07.888Z,61.32
2019-05-19T20:05:38.315Z,61.42
2019-05-19T20:08:07.551Z,61.03
2019-05-19T20:10:37.183Z,61.55
2019-05-19T20:13:06.511Z,62.11
2019-05-19T20:15:36.114Z,62.26
2019-05-19T20:18:04.870Z,62.13
2019-05-19T20:20:33.520Z,63.70
2019-05-19T20:23:02.066Z,62.84
2019-05-19T20:25:30.668Z,64.45
2019-05-19T20:27:59.182Z,64.01
2019-05-19T20:30:35.567Z,65.95
2019-05-19T20:32:57.928Z,65.83
2019-05-19T20:35:26.514Z,65.71
2019-05-19T20:37:57.150Z,65.85
2019-05-19T20:40:25.673Z,67.08
2019-05-19T20:42:56.843Z,66.18
2019-05-19T20:45:24.555Z,65.36
2019-05-19T20:47:53.044Z,65.03
2019-05-19T20:50:24.633Z,68.25
2019-05-19T20:52:53.135Z,66.01
2019-05-19T20:55:21.623Z,65.82
2019-05-19T20:57:50.241Z,67.04
2019-05-19T21:00:19.770Z,66.54
2019-05-19T21:02:51.555Z,67.17
2019-05-19T21:05:20.102Z,67.10
2019-05-19T21:07:48.663Z,69.76
2019-05-19T21:10:17.221Z,67.55
2019-05-19T21:12:45.746Z,70.18
2019-05-19T21:15:14.526Z,71.33
2019-05-19T21:17:43.100Z,72.80
2019-05-19T21:20:11.950Z,73.37
2019-05-19T21:22:40.512Z,74.16
2019-05-19T21:25:09.588Z,75.38
2019-05-19T21:27:38.258Z,73.61
2019-05-19T21:30:07.265Z,75.15
2019-05-19T21:32:35.870Z,76.48
2019-05-19T21:35:08.052Z,74.77
2019-05-19T21:37:36.644Z,80.18
2019-05-19T21:40:07.356Z,76.54
2019-05-19T21:42:36.015Z,76.94
2019-05-19T21:45:05.555Z,76.54
2019-05-19T21:47:34.115Z,76.87
2019-05-19T21:50:02.853Z,75.65
2019-05-19T21:52:31.744Z,76.03
2019-05-19T21:55:00.254Z,74.83
2019-05-19T21:57:28.803Z,75.76
2019-05-19T21:59:57.302Z,76.80
2019-05-19T22:02:30.745Z,76.62
2019-05-19T22:05:01.494Z,76.29
2019-05-19T22:07:33.875Z,75.52
2019-05-19T22:10:02.395Z,74.96
2019-05-19T22:12:30.926Z,77.45
2019-05-19T22:14:59.408Z,74.35
2019-05-19T22:17:27.953Z,75.28
2019-05-19T22:19:56.450Z,76.30
2019-05-19T22:22:24.984Z,76.88
2019-05-19T22:24:53.466Z,77.09
2019-05-19T22:27:22.139Z,79.53
2019-05-19T22:29:50.639Z,76.14
2019-05-19T22:32:19.127Z,76.27
2019-05-19T22:34:47.649Z,74.68
2019-05-19T22:37:16.133Z,77.63
2019-05-19T22:39:44.659Z,76.49
2019-05-19T22:42:13.164Z,76.80
2019-05-19T22:44:41.683Z,76.13
2019-05-19T22:47:10.210Z,76.34
2019-05-19T22:49:38.800Z,76.80
2019-05-19T22:52:07.306Z,76.60
2019-05-19T22:54:35.814Z,77.82
2019-05-19T22:57:04.358Z,77.58
2019-05-19T22:59:32.875Z,76.33
2019-05-19T23:02:01.381Z,76.65
2019-05-19T23:04:29.926Z,77.67
2019-05-19T23:06:58.405Z,77.11
2019-05-19T23:09:26.979Z,77.46
2019-05-19T23:11:55.546Z,79.75
2019-05-19T23:14:24.069Z,76.16
2019-05-19T23:16:52.583Z,76.08
2019-05-19T23:19:21.131Z,77.27
2019-05-19T23:21:49.614Z,75.77
2019-05-19T23:24:18.129Z,75.46
2019-05-19T23:26:46.681Z,76.32
2019-05-19T23:29:15.192Z,75.81
2019-05-19T23:31:43.776Z,75.62
2019-05-19T23:34:12.362Z,78.20
2019-05-19T23:36:40.915Z,77.29
2019-05-19T23:39:09.424Z,75.93
2019-05-19T23:41:38.034Z,76.90
2019-05-19T23:44:06.538Z,76.94
2019-05-19T23:46:35.021Z,76.71
2019-05-19T23:49:03.642Z,77.14
2019-05-19T23:51:32.125Z,77.96
2019-05-19T23:54:19.962Z,78.24
2019-05-19T23:56:48.458Z,78.75
2019-05-19T23:59:19.380Z,79.03
